This is the latest recevied weather packets stored in our database for station/object SQ7IQO. If no packets are shown the sender has not sent any weather packets the latest 10 day(s).
| Time | Temp. | Humidity | Pressure | Rain* | Wind** | Luminosity | Snow |
|---|---|---|---|---|---|---|---|
| 1787746778 | 22.78° C | 54% | 1023.6 hPa | 0 mm | 0 m/s | - | - |
| 1787746718 | 23.89° C | 54% | 1023.6 hPa | 0 mm | 0.45 m/s, ° | - | - |
| 1787746658 | 23.89° C | 50% | 1023.7 hPa | 0 mm | 0 m/s | - | - |
| 1787746598 | 24.44° C | 51% | 1023.6 hPa | 0 mm | 0.45 m/s, ° | - | - |
| 1787746538 | 24.44° C | 52% | 1023.6 hPa | 0 mm | 0 m/s | - | - |
| 1787746478 | 24.44° C | 53% | 1023.7 hPa | 0 mm | 0 m/s | - | - |
| 1787746418 | 25.56° C | 46% | 1023.7 hPa | 0 mm | 0.89 m/s, ° | - | - |
| 1787746358 | 25.56° C | 46% | 1023.7 hPa | 0 mm | 0 m/s | - | - |
| 1787746298 | 25° C | 49% | 1023.7 hPa | 0 mm | 0 m/s | - | - |
| 1787746238 | 23.89° C | 52% | 1023.7 hPa | 0 mm | 0 m/s | - | - |
| 1787746178 | 23.33° C | 53% | 1023.7 hPa | 0 mm | 0 m/s | - | - |
| 1787746118 | 23.33° C | 48% | 1023.7 hPa | 0 mm | 0 m/s | - | - |
| 1787746058 | 23.33° C | 52% | 1023.7 hPa | 0 mm | 0.45 m/s, ° | - | - |
| 1787745998 | 23.33° C | 55% | 1023.7 hPa | 0 mm | 0 m/s | - | - |
| 1787745938 | 22.78° C | 54% | 1023.7 hPa | 0 mm | 0 m/s | - | - |
| 1787745878 | 22.78° C | 52% | 1023.7 hPa | 0 mm | 0.45 m/s, ° | - | - |
| 1787745818 | 23.33° C | 51% | 1023.7 hPa | 0 mm | 0.89 m/s, ° | - | - |
| 1787745758 | 22.78° C | 55% | 1023.7 hPa | 0 mm | 0 m/s | - | - |
| 1787745698 | 22.78° C | 54% | 1023.7 hPa | 0 mm | 0 m/s | - | - |
| 1787745638 | 22.22° C | 53% | 1023.7 hPa | 0 mm | 0 m/s | - | - |
| 1787745578 | 21.67° C | 54% | 1023.7 hPa | 0 mm | 0 m/s | - | - |
| 1787745518 | 21.67° C | 58% | 1023.7 hPa | 0 mm | 0 m/s | - | - |
| 1787745458 | 21.67° C | 55% | 1023.7 hPa | 0 mm | 0 m/s | - | - |
| 1787745398 | 22.22° C | 55% | 1023.7 hPa | 0 mm | 0 m/s | - | - |
| 1787745338 | 23.33° C | 56% | 1023.7 hPa | 0 mm | 0.45 m/s, ° | - | - |
* Rain latest hour (hover to see other rain measurements)
** Current wind speed in m/s (hover to see current wind gust speed)